sensor_id;sensor_type;location;lat;lon;timestamp;P1;durP1;ratioP1;P2;durP2;ratioP2
68074;SDS011;54864;52.002;5.468;2023-09-18T00:00:10;22.50;;;15.13;;
68074;SDS011;54864;52.002;5.468;2023-09-18T00:01:12;21.98;;;16.33;;
68074;SDS011;54864;52.002;5.468;2023-09-18T00:02:14;24.55;;;16.30;;
68074;SDS011;54864;52.002;5.468;2023-09-18T00:03:23;27.13;;;15.75;;
68074;SDS011;54864;52.002;5.468;2023-09-18T00:04:31;21.92;;;15.70;;
68074;SDS011;54864;52.002;5.468;2023-09-18T00:05:32;21.33;;;16.17;;
68074;SDS011;54864;52.002;5.468;2023-09-18T00:06:34;19.73;;;16.00;;
68074;SDS011;54864;52.002;5.468;2023-09-18T00:07:35;19.77;;;15.60;;
68074;SDS011;54864;52.002;5.468;2023-09-18T00:08:38;23.60;;;16.83;;
68074;SDS011;54864;52.002;5.468;2023-09-18T00:09:39;22.52;;;16.38;;
68074;SDS011;54864;52.002;5.468;2023-09-18T00:10:41;19.48;;;15.65;;
68074;SDS011;54864;52.002;5.468;2023-09-18T00:11:43;25.88;;;16.38;;
68074;SDS011;54864;52.002;5.468;2023-09-18T00:12:46;22.95;;;15.93;;
68074;SDS011;54864;52.002;5.468;2023-09-18T00:13:47;18.63;;;15.30;;
68074;SDS011;54864;52.002;5.468;2023-09-18T00:14:49;25.42;;;15.65;;
68074;SDS011;54864;52.002;5.468;2023-09-18T00:15:54;16.92;;;14.30;;
68074;SDS011;54864;52.002;5.468;2023-09-18T00:17:02;21.83;;;15.77;;
68074;SDS011;54864;52.002;5.468;2023-09-18T00:18:03;20.90;;;15.68;;
68074;SDS011;54864;52.002;5.468;2023-09-18T00:19:05;18.58;;;14.70;;
68074;SDS011;54864;52.002;5.468;2023-09-18T00:20:06;24.02;;;15.45;;
68074;SDS011;54864;52.002;5.468;2023-09-18T00:21:09;21.60;;;14.98;;
68074;SDS011;54864;52.002;5.468;2023-09-18T00:22:10;21.88;;;15.50;;
68074;SDS011;54864;52.002;5.468;2023-09-18T00:23:12;21.58;;;15.48;;
68074;SDS011;54864;52.002;5.468;2023-09-18T00:24:16;19.08;;;14.20;;
68074;SDS011;54864;52.002;5.468;2023-09-18T00:25:18;19.30;;;15.27;;
68074;SDS011;54864;52.002;5.468;2023-09-18T00:26:19;22.75;;;15.57;;
68074;SDS011;54864;52.002;5.468;2023-09-18T00:27:21;21.63;;;15.00;;
68074;SDS011;54864;52.002;5.468;2023-09-18T00:28:23;22.87;;;15.80;;
68074;SDS011;54864;52.002;5.468;2023-09-18T00:29:25;22.02;;;15.73;;
68074;SDS011;54864;52.002;5.468;2023-09-18T00:30:26;23.50;;;15.75;;
68074;SDS011;54864;52.002;5.468;2023-09-18T00:31:27;22.23;;;15.63;;
68074;SDS011;54864;52.002;5.468;2023-09-18T00:32:34;23.10;;;15.40;;
68074;SDS011;54864;52.002;5.468;2023-09-18T00:33:36;20.65;;;15.27;;
68074;SDS011;54864;52.002;5.468;2023-09-18T00:34:37;19.30;;;15.10;;
68074;SDS011;54864;52.002;5.468;2023-09-18T00:35:44;26.40;;;15.60;;
68074;SDS011;54864;52.002;5.468;2023-09-18T00:36:46;20.97;;;15.00;;
68074;SDS011;54864;52.002;5.468;2023-09-18T00:37:47;19.80;;;14.95;;
68074;SDS011;54864;52.002;5.468;2023-09-18T00:38:48;21.63;;;15.40;;
68074;SDS011;54864;52.002;5.468;2023-09-18T00:39:52;21.38;;;15.68;;
68074;SDS011;54864;52.002;5.468;2023-09-18T00:40:53;27.48;;;15.60;;
68074;SDS011;54864;52.002;5.468;2023-09-18T00:41:55;19.63;;;14.18;;
68074;SDS011;54864;52.002;5.468;2023-09-18T00:42:56;21.60;;;15.23;;
68074;SDS011;54864;52.002;5.468;2023-09-18T00:43:58;23.35;;;15.52;;
68074;SDS011;54864;52.002;5.468;2023-09-18T00:45:00;23.80;;;15.57;;
68074;SDS011;54864;52.002;5.468;2023-09-18T00:46:00;23.50;;;15.27;;
68074;SDS011;54864;52.002;5.468;2023-09-18T00:47:03;24.50;;;15.93;;
68074;SDS011;54864;52.002;5.468;2023-09-18T00:48:03;22.17;;;15.07;;
68074;SDS011;54864;52.002;5.468;2023-09-18T00:49:05;20.38;;;14.82;;
68074;SDS011;54864;52.002;5.468;2023-09-18T00:50:07;23.05;;;14.60;;
68074;SDS011;54864;52.002;5.468;2023-09-18T00:51:13;19.63;;;14.10;;
68074;SDS011;54864;52.002;5.468;2023-09-18T00:52:17;19.10;;;14.55;;
68074;SDS011;54864;52.002;5.468;2023-09-18T00:53:22;17.92;;;14.88;;
68074;SDS011;54864;52.002;5.468;2023-09-18T00:54:25;24.40;;;14.30;;
68074;SDS011;54864;52.002;5.468;2023-09-18T00:55:29;20.90;;;15.52;;
68074;SDS011;54864;52.002;5.468;2023-09-18T00:56:31;19.67;;;15.38;;
68074;SDS011;54864;52.002;5.468;2023-09-18T00:57:34;23.33;;;15.02;;
68074;SDS011;54864;52.002;5.468;2023-09-18T00:58:35;18.85;;;14.85;;
68074;SDS011;54864;52.002;5.468;2023-09-18T00:59:38;22.08;;;15.75;;
68074;SDS011;54864;52.002;5.468;2023-09-18T01:00:39;23.25;;;16.10;;
68074;SDS011;54864;52.002;5.468;2023-09-18T01:01:41;20.67;;;14.93;;
68074;SDS011;54864;52.002;5.468;2023-09-18T01:02:43;19.95;;;15.05;;
68074;SDS011;54864;52.002;5.468;2023-09-18T01:03:46;21.27;;;14.82;;
68074;SDS011;54864;52.002;5.468;2023-09-18T01:04:47;21.30;;;15.70;;
68074;SDS011;54864;52.002;5.468;2023-09-18T01:05:48;17.45;;;14.63;;
68074;SDS011;54864;52.002;5.468;2023-09-18T01:06:50;21.55;;;14.77;;
68074;SDS011;54864;52.002;5.468;2023-09-18T01:07:51;20.20;;;14.80;;
68074;SDS011;54864;52.002;5.468;2023-09-18T01:08:52;16.80;;;14.43;;
68074;SDS011;54864;52.002;5.468;2023-09-18T01:09:54;19.02;;;14.48;;
68074;SDS011;54864;52.002;5.468;2023-09-18T01:10:56;23.38;;;14.13;;
68074;SDS011;54864;52.002;5.468;2023-09-18T01:12:06;22.73;;;14.52;;
68074;SDS011;54864;52.002;5.468;2023-09-18T01:13:13;20.27;;;14.33;;
68074;SDS011;54864;52.002;5.468;2023-09-18T01:14:19;22.70;;;14.65;;
68074;SDS011;54864;52.002;5.468;2023-09-18T01:15:30;26.77;;;15.48;;
68074;SDS011;54864;52.002;5.468;2023-09-18T01:16:37;20.20;;;15.05;;
68074;SDS011;54864;52.002;5.468;2023-09-18T01:17:45;18.08;;;14.65;;
68074;SDS011;54864;52.002;5.468;2023-09-18T01:18:50;19.92;;;14.80;;
68074;SDS011;54864;52.002;5.468;2023-09-18T01:19:52;18.17;;;13.73;;
68074;SDS011;54864;52.002;5.468;2023-09-18T01:20:52;18.38;;;14.50;;
68074;SDS011;54864;52.002;5.468;2023-09-18T01:21:54;18.88;;;13.77;;
68074;SDS011;54864;52.002;5.468;2023-09-18T01:22:56;21.33;;;15.15;;
68074;SDS011;54864;52.002;5.468;2023-09-18T01:23:58;22.52;;;15.40;;
68074;SDS011;54864;52.002;5.468;2023-09-18T01:24:59;19.92;;;16.10;;
68074;SDS011;54864;52.002;5.468;2023-09-18T01:26:00;19.83;;;15.50;;
68074;SDS011;54864;52.002;5.468;2023-09-18T01:27:01;22.42;;;15.57;;
68074;SDS011;54864;52.002;5.468;2023-09-18T01:28:04;18.95;;;14.77;;
68074;SDS011;54864;52.002;5.468;2023-09-18T01:29:05;21.42;;;16.85;;
68074;SDS011;54864;52.002;5.468;2023-09-18T01:30:07;22.27;;;16.10;;
68074;SDS011;54864;52.002;5.468;2023-09-18T01:31:08;20.10;;;16.00;;
68074;SDS011;54864;52.002;5.468;2023-09-18T01:32:10;20.42;;;15.20;;
68074;SDS011;54864;52.002;5.468;2023-09-18T01:33:10;21.70;;;15.98;;
68074;SDS011;54864;52.002;5.468;2023-09-18T01:34:13;19.33;;;15.30;;
68074;SDS011;54864;52.002;5.468;2023-09-18T01:35:15;21.45;;;16.40;;
68074;SDS011;54864;52.002;5.468;2023-09-18T01:36:18;20.17;;;15.23;;
68074;SDS011;54864;52.002;5.468;2023-09-18T01:37:21;22.35;;;16.83;;
68074;SDS011;54864;52.002;5.468;2023-09-18T01:38:25;19.45;;;16.92;;
68074;SDS011;54864;52.002;5.468;2023-09-18T01:39:31;24.17;;;16.25;;
68074;SDS011;54864;52.002;5.468;2023-09-18T01:40:33;21.20;;;15.80;;
68074;SDS011;54864;52.002;5.468;2023-09-18T01:41:35;25.15;;;17.00;;
68074;SDS011;54864;52.002;5.468;2023-09-18T01:42:37;24.17;;;16.35;;
68074;SDS011;54864;52.002;5.468;2023-09-18T01:43:41;18.75;;;14.48;;
68074;SDS011;54864;52.002;5.468;2023-09-18T01:44:42;21.63;;;15.40;;
68074;SDS011;54864;52.002;5.468;2023-09-18T01:45:45;20.65;;;15.80;;
68074;SDS011;54864;52.002;5.468;2023-09-18T01:46:48;22.42;;;16.50;;
68074;SDS011;54864;52.002;5.468;2023-09-18T01:47:51;19.08;;;15.63;;
68074;SDS011;54864;52.002;5.468;2023-09-18T01:48:55;21.42;;;16.30;;
68074;SDS011;54864;52.002;5.468;2023-09-18T01:49:57;20.50;;;16.10;;
68074;SDS011;54864;52.002;5.468;2023-09-18T01:50:57;20.20;;;16.33;;
68074;SDS011;54864;52.002;5.468;2023-09-18T01:51:59;19.77;;;16.52;;
68074;SDS011;54864;52.002;5.468;2023-09-18T01:53:03;22.02;;;15.43;;
68074;SDS011;54864;52.002;5.468;2023-09-18T01:54:08;21.55;;;16.48;;
68074;SDS011;54864;52.002;5.468;2023-09-18T01:55:10;20.70;;;15.60;;
68074;SDS011;54864;52.002;5.468;2023-09-18T01:56:12;21.08;;;16.40;;
68074;SDS011;54864;52.002;5.468;2023-09-18T01:57:12;20.58;;;15.60;;
68074;SDS011;54864;52.002;5.468;2023-09-18T01:58:14;21.38;;;16.23;;
68074;SDS011;54864;52.002;5.468;2023-09-18T01:59:15;20.77;;;15.75;;
68074;SDS011;54864;52.002;5.468;2023-09-18T02:00:17;22.50;;;15.52;;
68074;SDS011;54864;52.002;5.468;2023-09-18T02:01:18;20.75;;;15.45;;
68074;SDS011;54864;52.002;5.468;2023-09-18T02:02:20;23.10;;;15.45;;
68074;SDS011;54864;52.002;5.468;2023-09-18T02:03:21;20.70;;;15.50;;
68074;SDS011;54864;52.002;5.468;2023-09-18T02:04:22;17.38;;;15.05;;
68074;SDS011;54864;52.002;5.468;2023-09-18T02:05:25;20.17;;;16.00;;
68074;SDS011;54864;52.002;5.468;2023-09-18T02:06:28;18.83;;;15.55;;
68074;SDS011;54864;52.002;5.468;2023-09-18T02:07:30;18.63;;;15.23;;
68074;SDS011;54864;52.002;5.468;2023-09-18T02:08:33;22.05;;;15.45;;
68074;SDS011;54864;52.002;5.468;2023-09-18T02:09:41;19.52;;;15.10;;
68074;SDS011;54864;52.002;5.468;2023-09-18T02:10:42;20.13;;;15.02;;
68074;SDS011;54864;52.002;5.468;2023-09-18T02:11:45;25.98;;;15.35;;
68074;SDS011;54864;52.002;5.468;2023-09-18T02:12:46;18.50;;;14.27;;
68074;SDS011;54864;52.002;5.468;2023-09-18T02:13:51;16.77;;;14.23;;
68074;SDS011;54864;52.002;5.468;2023-09-18T02:14:54;19.90;;;14.75;;
68074;SDS011;54864;52.002;5.468;2023-09-18T02:15:57;21.75;;;15.73;;
68074;SDS011;54864;52.002;5.468;2023-09-18T02:16:58;21.38;;;15.57;;
68074;SDS011;54864;52.002;5.468;2023-09-18T02:17:58;20.07;;;15.33;;
68074;SDS011;54864;52.002;5.468;2023-09-18T02:19:00;21.45;;;16.25;;
68074;SDS011;54864;52.002;5.468;2023-09-18T02:20:01;22.95;;;16.40;;
68074;SDS011;54864;52.002;5.468;2023-09-18T02:21:05;21.77;;;15.10;;
68074;SDS011;54864;52.002;5.468;2023-09-18T02:22:07;19.10;;;16.33;;
68074;SDS011;54864;52.002;5.468;2023-09-18T02:23:09;19.70;;;15.90;;
68074;SDS011;54864;52.002;5.468;2023-09-18T02:24:10;24.73;;;18.47;;
68074;SDS011;54864;52.002;5.468;2023-09-18T02:25:13;25.70;;;17.88;;
68074;SDS011;54864;52.002;5.468;2023-09-18T02:26:14;22.98;;;16.73;;
68074;SDS011;54864;52.002;5.468;2023-09-18T02:27:16;20.42;;;17.20;;
68074;SDS011;54864;52.002;5.468;2023-09-18T02:28:18;22.10;;;17.57;;
68074;SDS011;54864;52.002;5.468;2023-09-18T02:29:20;24.48;;;17.20;;
68074;SDS011;54864;52.002;5.468;2023-09-18T02:30:21;21.67;;;18.05;;
68074;SDS011;54864;52.002;5.468;2023-09-18T02:31:23;27.30;;;18.83;;
68074;SDS011;54864;52.002;5.468;2023-09-18T02:32:23;23.00;;;18.70;;
68074;SDS011;54864;52.002;5.468;2023-09-18T02:33:25;27.50;;;20.20;;
68074;SDS011;54864;52.002;5.468;2023-09-18T02:34:26;27.35;;;18.45;;
68074;SDS011;54864;52.002;5.468;2023-09-18T02:35:28;26.67;;;19.38;;
68074;SDS011;54864;52.002;5.468;2023-09-18T02:36:29;25.52;;;18.40;;
68074;SDS011;54864;52.002;5.468;2023-09-18T02:37:30;23.10;;;18.80;;
68074;SDS011;54864;52.002;5.468;2023-09-18T02:38:31;20.77;;;18.23;;
68074;SDS011;54864;52.002;5.468;2023-09-18T02:39:34;27.42;;;17.55;;
68074;SDS011;54864;52.002;5.468;2023-09-18T02:40:36;27.67;;;18.27;;
68074;SDS011;54864;52.002;5.468;2023-09-18T02:41:38;26.75;;;18.70;;
68074;SDS011;54864;52.002;5.468;2023-09-18T02:42:39;25.90;;;18.80;;
68074;SDS011;54864;52.002;5.468;2023-09-18T02:43:41;23.20;;;18.70;;
68074;SDS011;54864;52.002;5.468;2023-09-18T02:44:41;24.73;;;18.83;;
68074;SDS011;54864;52.002;5.468;2023-09-18T02:45:42;24.20;;;18.48;;
68074;SDS011;54864;52.002;5.468;2023-09-18T02:46:45;23.80;;;19.08;;
68074;SDS011;54864;52.002;5.468;2023-09-18T02:47:45;26.27;;;19.10;;
68074;SDS011;54864;52.002;5.468;2023-09-18T02:48:48;25.83;;;19.30;;
68074;SDS011;54864;52.002;5.468;2023-09-18T02:49:49;24.13;;;18.60;;
68074;SDS011;54864;52.002;5.468;2023-09-18T02:50:53;23.33;;;19.08;;
68074;SDS011;54864;52.002;5.468;2023-09-18T02:51:54;28.67;;;20.37;;
68074;SDS011;54864;52.002;5.468;2023-09-18T02:52:55;24.17;;;19.15;;
68074;SDS011;54864;52.002;5.468;2023-09-18T02:53:56;26.38;;;19.30;;
68074;SDS011;54864;52.002;5.468;2023-09-18T02:54:58;24.97;;;19.73;;
68074;SDS011;54864;52.002;5.468;2023-09-18T02:56:00;26.52;;;19.73;;
68074;SDS011;54864;52.002;5.468;2023-09-18T02:57:02;25.20;;;19.17;;
68074;SDS011;54864;52.002;5.468;2023-09-18T02:58:03;26.02;;;20.17;;
68074;SDS011;54864;52.002;5.468;2023-09-18T02:59:04;23.80;;;19.23;;
68074;SDS011;54864;52.002;5.468;2023-09-18T03:00:06;22.58;;;18.38;;
68074;SDS011;54864;52.002;5.468;2023-09-18T03:01:09;26.60;;;18.38;;
68074;SDS011;54864;52.002;5.468;2023-09-18T03:02:10;28.70;;;18.83;;
68074;SDS011;54864;52.002;5.468;2023-09-18T03:03:12;27.48;;;18.42;;
68074;SDS011;54864;52.002;5.468;2023-09-18T03:04:13;25.80;;;19.27;;
68074;SDS011;54864;52.002;5.468;2023-09-18T03:05:14;28.30;;;19.33;;
68074;SDS011;54864;52.002;5.468;2023-09-18T03:06:16;24.27;;;18.23;;
68074;SDS011;54864;52.002;5.468;2023-09-18T03:07:16;24.05;;;18.42;;
68074;SDS011;54864;52.002;5.468;2023-09-18T03:08:18;25.88;;;17.80;;
68074;SDS011;54864;52.002;5.468;2023-09-18T03:09:19;26.08;;;18.98;;
68074;SDS011;54864;52.002;5.468;2023-09-18T03:10:21;19.48;;;17.15;;
68074;SDS011;54864;52.002;5.468;2023-09-18T03:11:23;25.73;;;17.83;;
68074;SDS011;54864;52.002;5.468;2023-09-18T03:12:27;24.25;;;17.13;;
68074;SDS011;54864;52.002;5.468;2023-09-18T03:13:29;22.05;;;17.52;;
68074;SDS011;54864;52.002;5.468;2023-09-18T03:14:31;25.77;;;18.20;;
68074;SDS011;54864;52.002;5.468;2023-09-18T03:15:33;25.65;;;19.05;;
68074;SDS011;54864;52.002;5.468;2023-09-18T03:16:34;21.67;;;18.15;;
68074;SDS011;54864;52.002;5.468;2023-09-18T03:17:35;24.70;;;18.90;;
68074;SDS011;54864;52.002;5.468;2023-09-18T03:18:37;28.42;;;18.70;;
68074;SDS011;54864;52.002;5.468;2023-09-18T03:19:38;23.27;;;18.40;;
68074;SDS011;54864;52.002;5.468;2023-09-18T03:20:39;27.23;;;17.85;;
68074;SDS011;54864;52.002;5.468;2023-09-18T03:21:44;24.27;;;18.30;;
68074;SDS011;54864;52.002;5.468;2023-09-18T03:22:45;27.47;;;18.13;;
68074;SDS011;54864;52.002;5.468;2023-09-18T03:23:46;26.75;;;18.65;;
68074;SDS011;54864;52.002;5.468;2023-09-18T03:24:47;26.52;;;18.95;;
68074;SDS011;54864;52.002;5.468;2023-09-18T03:25:49;21.65;;;18.15;;
68074;SDS011;54864;52.002;5.468;2023-09-18T03:26:51;21.27;;;18.23;;
68074;SDS011;54864;52.002;5.468;2023-09-18T03:27:53;20.50;;;17.05;;
68074;SDS011;54864;52.002;5.468;2023-09-18T03:28:55;25.85;;;16.80;;
68074;SDS011;54864;52.002;5.468;2023-09-18T03:29:56;24.00;;;18.20;;
68074;SDS011;54864;52.002;5.468;2023-09-18T03:30:58;23.10;;;17.13;;
68074;SDS011;54864;52.002;5.468;2023-09-18T03:31:58;28.98;;;17.58;;
68074;SDS011;54864;52.002;5.468;2023-09-18T03:33:00;24.85;;;16.85;;
68074;SDS011;54864;52.002;5.468;2023-09-18T03:34:01;21.73;;;17.70;;
68074;SDS011;54864;52.002;5.468;2023-09-18T03:35:23;25.30;;;17.77;;
68074;SDS011;54864;52.002;5.468;2023-09-18T03:36:24;22.45;;;16.85;;
68074;SDS011;54864;52.002;5.468;2023-09-18T03:37:26;23.55;;;17.20;;
68074;SDS011;54864;52.002;5.468;2023-09-18T03:38:27;24.55;;;17.35;;
68074;SDS011;54864;52.002;5.468;2023-09-18T03:39:30;20.48;;;17.27;;
68074;SDS011;54864;52.002;5.468;2023-09-18T03:40:30;21.08;;;16.92;;
68074;SDS011;54864;52.002;5.468;2023-09-18T03:41:33;22.55;;;17.02;;
68074;SDS011;54864;52.002;5.468;2023-09-18T03:42:35;26.27;;;16.95;;
68074;SDS011;54864;52.002;5.468;2023-09-18T03:43:50;23.58;;;16.92;;
68074;SDS011;54864;52.002;5.468;2023-09-18T03:44:51;23.38;;;17.63;;
68074;SDS011;54864;52.002;5.468;2023-09-18T03:45:52;28.75;;;18.38;;
68074;SDS011;54864;52.002;5.468;2023-09-18T03:46:53;19.40;;;16.83;;
68074;SDS011;54864;52.002;5.468;2023-09-18T03:47:55;23.80;;;17.98;;
68074;SDS011;54864;52.002;5.468;2023-09-18T03:48:56;22.00;;;16.77;;
68074;SDS011;54864;52.002;5.468;2023-09-18T03:49:58;21.83;;;16.90;;
68074;SDS011;54864;52.002;5.468;2023-09-18T03:51:01;24.63;;;16.92;;
68074;SDS011;54864;52.002;5.468;2023-09-18T03:52:18;23.90;;;16.63;;
68074;SDS011;54864;52.002;5.468;2023-09-18T03:53:19;23.77;;;15.93;;
68074;SDS011;54864;52.002;5.468;2023-09-18T03:54:21;27.48;;;18.95;;
68074;SDS011;54864;52.002;5.468;2023-09-18T03:55:22;22.50;;;16.85;;
68074;SDS011;54864;52.002;5.468;2023-09-18T03:56:23;23.13;;;18.23;;
68074;SDS011;54864;52.002;5.468;2023-09-18T03:57:24;23.98;;;17.58;;
68074;SDS011;54864;52.002;5.468;2023-09-18T03:58:28;21.75;;;17.05;;
68074;SDS011;54864;52.002;5.468;2023-09-18T03:59:28;20.83;;;16.90;;
68074;SDS011;54864;52.002;5.468;2023-09-18T04:00:30;23.77;;;16.92;;
68074;SDS011;54864;52.002;5.468;2023-09-18T04:01:31;22.27;;;16.67;;
68074;SDS011;54864;52.002;5.468;2023-09-18T04:02:33;21.45;;;17.25;;
68074;SDS011;54864;52.002;5.468;2023-09-18T04:03:34;19.60;;;16.05;;
68074;SDS011;54864;52.002;5.468;2023-09-18T04:04:37;27.35;;;17.67;;
68074;SDS011;54864;52.002;5.468;2023-09-18T04:05:37;24.98;;;17.75;;
68074;SDS011;54864;52.002;5.468;2023-09-18T04:06:40;29.17;;;18.52;;
68074;SDS011;54864;52.002;5.468;2023-09-18T04:07:42;24.60;;;17.07;;
68074;SDS011;54864;52.002;5.468;2023-09-18T04:08:46;23.52;;;17.58;;
68074;SDS011;54864;52.002;5.468;2023-09-18T04:09:47;29.77;;;17.35;;
68074;SDS011;54864;52.002;5.468;2023-09-18T04:10:49;25.00;;;15.57;;
68074;SDS011;54864;52.002;5.468;2023-09-18T04:11:50;22.75;;;17.15;;
68074;SDS011;54864;52.002;5.468;2023-09-18T04:12:52;19.85;;;16.20;;
68074;SDS011;54864;52.002;5.468;2023-09-18T04:14:00;23.23;;;16.37;;
68074;SDS011;54864;52.002;5.468;2023-09-18T04:15:03;23.05;;;16.90;;
68074;SDS011;54864;52.002;5.468;2023-09-18T04:16:05;20.92;;;15.60;;
68074;SDS011;54864;52.002;5.468;2023-09-18T04:17:08;25.00;;;16.42;;
68074;SDS011;54864;52.002;5.468;2023-09-18T04:18:09;19.07;;;15.87;;
68074;SDS011;54864;52.002;5.468;2023-09-18T04:19:11;21.67;;;16.55;;
68074;SDS011;54864;52.002;5.468;2023-09-18T04:20:12;24.65;;;16.83;;
68074;SDS011;54864;52.002;5.468;2023-09-18T04:21:14;24.80;;;16.20;;
68074;SDS011;54864;52.002;5.468;2023-09-18T04:22:15;21.10;;;16.05;;
68074;SDS011;54864;52.002;5.468;2023-09-18T04:23:20;21.38;;;16.45;;
68074;SDS011;54864;52.002;5.468;2023-09-18T04:24:22;23.67;;;15.77;;
68074;SDS011;54864;52.002;5.468;2023-09-18T04:25:23;22.13;;;17.08;;
68074;SDS011;54864;52.002;5.468;2023-09-18T04:26:26;21.73;;;17.17;;
68074;SDS011;54864;52.002;5.468;2023-09-18T04:27:29;24.48;;;17.60;;
68074;SDS011;54864;52.002;5.468;2023-09-18T04:28:31;25.92;;;17.08;;
68074;SDS011;54864;52.002;5.468;2023-09-18T04:29:33;24.45;;;16.85;;
68074;SDS011;54864;52.002;5.468;2023-09-18T04:30:35;24.30;;;17.45;;
68074;SDS011;54864;52.002;5.468;2023-09-18T04:31:36;21.45;;;17.20;;
68074;SDS011;54864;52.002;5.468;2023-09-18T04:32:39;24.30;;;16.50;;
68074;SDS011;54864;52.002;5.468;2023-09-18T04:33:40;22.10;;;16.90;;
68074;SDS011;54864;52.002;5.468;2023-09-18T04:34:42;21.75;;;17.13;;
68074;SDS011;54864;52.002;5.468;2023-09-18T04:35:43;21.05;;;16.13;;
68074;SDS011;54864;52.002;5.468;2023-09-18T04:36:45;22.80;;;14.98;;
68074;SDS011;54864;52.002;5.468;2023-09-18T04:37:49;26.17;;;16.95;;
68074;SDS011;54864;52.002;5.468;2023-09-18T04:38:51;26.48;;;18.23;;
68074;SDS011;54864;52.002;5.468;2023-09-18T04:39:52;24.02;;;17.70;;
68074;SDS011;54864;52.002;5.468;2023-09-18T04:40:57;20.15;;;16.50;;
68074;SDS011;54864;52.002;5.468;2023-09-18T04:41:58;24.23;;;18.80;;
68074;SDS011;54864;52.002;5.468;2023-09-18T04:43:03;22.77;;;18.17;;
68074;SDS011;54864;52.002;5.468;2023-09-18T04:44:04;28.13;;;18.05;;
68074;SDS011;54864;52.002;5.468;2023-09-18T04:45:09;27.77;;;18.33;;
68074;SDS011;54864;52.002;5.468;2023-09-18T04:46:09;23.35;;;17.75;;
68074;SDS011;54864;52.002;5.468;2023-09-18T04:47:11;31.33;;;19.65;;
68074;SDS011;54864;52.002;5.468;2023-09-18T04:48:12;29.48;;;19.08;;
68074;SDS011;54864;52.002;5.468;2023-09-18T04:49:14;23.93;;;18.23;;
68074;SDS011;54864;52.002;5.468;2023-09-18T04:50:15;30.00;;;19.92;;
68074;SDS011;54864;52.002;5.468;2023-09-18T04:51:17;33.72;;;20.52;;
68074;SDS011;54864;52.002;5.468;2023-09-18T04:52:21;33.92;;;20.63;;
68074;SDS011;54864;52.002;5.468;2023-09-18T04:53:21;31.25;;;20.67;;
68074;SDS011;54864;52.002;5.468;2023-09-18T04:54:23;39.33;;;20.73;;
68074;SDS011;54864;52.002;5.468;2023-09-18T04:55:24;35.83;;;20.00;;
68074;SDS011;54864;52.002;5.468;2023-09-18T04:56:26;30.92;;;18.48;;
68074;SDS011;54864;52.002;5.468;2023-09-18T04:57:27;21.60;;;16.08;;
68074;SDS011;54864;52.002;5.468;2023-09-18T04:58:29;31.33;;;15.52;;
68074;SDS011;54864;52.002;5.468;2023-09-18T04:59:31;28.70;;;15.00;;
68074;SDS011;54864;52.002;5.468;2023-09-18T05:00:34;21.63;;;13.20;;
68074;SDS011;54864;52.002;5.468;2023-09-18T05:01:35;21.05;;;14.10;;
68074;SDS011;54864;52.002;5.468;2023-09-18T05:02:36;30.80;;;14.40;;
68074;SDS011;54864;52.002;5.468;2023-09-18T05:03:37;25.15;;;14.10;;
68074;SDS011;54864;52.002;5.468;2023-09-18T05:04:39;21.67;;;15.43;;
68074;SDS011;54864;52.002;5.468;2023-09-18T05:05:42;20.15;;;13.57;;
68074;SDS011;54864;52.002;5.468;2023-09-18T05:06:44;27.05;;;15.00;;
68074;SDS011;54864;52.002;5.468;2023-09-18T05:07:45;23.83;;;14.95;;
68074;SDS011;54864;52.002;5.468;2023-09-18T05:08:50;19.42;;;14.75;;
68074;SDS011;54864;52.002;5.468;2023-09-18T05:09:51;26.90;;;14.85;;
68074;SDS011;54864;52.002;5.468;2023-09-18T05:10:52;23.70;;;14.45;;
68074;SDS011;54864;52.002;5.468;2023-09-18T05:11:55;21.33;;;14.52;;
68074;SDS011;54864;52.002;5.468;2023-09-18T05:12:55;20.73;;;14.02;;
68074;SDS011;54864;52.002;5.468;2023-09-18T05:13:59;21.38;;;14.40;;
68074;SDS011;54864;52.002;5.468;2023-09-18T05:15:00;24.42;;;14.30;;
68074;SDS011;54864;52.002;5.468;2023-09-18T05:16:06;21.30;;;13.77;;
68074;SDS011;54864;52.002;5.468;2023-09-18T05:17:09;18.80;;;12.98;;
68074;SDS011;54864;52.002;5.468;2023-09-18T05:18:12;26.95;;;15.02;;
68074;SDS011;54864;52.002;5.468;2023-09-18T05:19:22;17.63;;;13.73;;
68074;SDS011;54864;52.002;5.468;2023-09-18T05:20:24;22.80;;;14.07;;
68074;SDS011;54864;52.002;5.468;2023-09-18T05:21:26;20.67;;;13.98;;
68074;SDS011;54864;52.002;5.468;2023-09-18T05:22:28;17.80;;;14.90;;
68074;SDS011;54864;52.002;5.468;2023-09-18T05:23:29;19.57;;;14.43;;
68074;SDS011;54864;52.002;5.468;2023-09-18T05:24:31;19.50;;;13.98;;
68074;SDS011;54864;52.002;5.468;2023-09-18T05:25:32;16.48;;;14.05;;
68074;SDS011;54864;52.002;5.468;2023-09-18T05:26:38;22.70;;;14.13;;
68074;SDS011;54864;52.002;5.468;2023-09-18T05:27:38;22.35;;;12.98;;
68074;SDS011;54864;52.002;5.468;2023-09-18T05:28:44;17.75;;;14.13;;
68074;SDS011;54864;52.002;5.468;2023-09-18T05:29:47;17.55;;;14.27;;
68074;SDS011;54864;52.002;5.468;2023-09-18T05:30:49;17.90;;;13.98;;
68074;SDS011;54864;52.002;5.468;2023-09-18T05:31:51;17.95;;;13.68;;
68074;SDS011;54864;52.002;5.468;2023-09-18T05:32:53;25.17;;;13.57;;
68074;SDS011;54864;52.002;5.468;2023-09-18T05:33:54;22.25;;;12.95;;
68074;SDS011;54864;52.002;5.468;2023-09-18T05:34:56;20.83;;;13.45;;
68074;SDS011;54864;52.002;5.468;2023-09-18T05:36:02;16.45;;;13.05;;
68074;SDS011;54864;52.002;5.468;2023-09-18T05:37:04;18.05;;;13.02;;
68074;SDS011;54864;52.002;5.468;2023-09-18T05:38:08;16.13;;;11.65;;
68074;SDS011;54864;52.002;5.468;2023-09-18T05:39:13;18.52;;;13.00;;
68074;SDS011;54864;52.002;5.468;2023-09-18T05:40:14;16.60;;;12.98;;
68074;SDS011;54864;52.002;5.468;2023-09-18T05:41:16;24.25;;;12.52;;
68074;SDS011;54864;52.002;5.468;2023-09-18T05:42:17;18.92;;;12.20;;
68074;SDS011;54864;52.002;5.468;2023-09-18T05:43:18;22.48;;;13.40;;
68074;SDS011;54864;52.002;5.468;2023-09-18T05:44:19;17.00;;;12.43;;
68074;SDS011;54864;52.002;5.468;2023-09-18T05:45:21;20.75;;;12.73;;
68074;SDS011;54864;52.002;5.468;2023-09-18T05:46:22;19.55;;;12.50;;
68074;SDS011;54864;52.002;5.468;2023-09-18T05:47:25;14.02;;;11.48;;
68074;SDS011;54864;52.002;5.468;2023-09-18T05:48:26;19.50;;;12.45;;
68074;SDS011;54864;52.002;5.468;2023-09-18T05:49:34;19.08;;;13.35;;
68074;SDS011;54864;52.002;5.468;2023-09-18T05:50:35;18.30;;;13.10;;
68074;SDS011;54864;52.002;5.468;2023-09-18T05:51:37;19.23;;;13.00;;
68074;SDS011;54864;52.002;5.468;2023-09-18T05:52:38;17.67;;;12.35;;
68074;SDS011;54864;52.002;5.468;2023-09-18T05:53:40;15.38;;;12.57;;
68074;SDS011;54864;52.002;5.468;2023-09-18T05:54:42;20.63;;;14.32;;
68074;SDS011;54864;52.002;5.468;2023-09-18T05:55:43;16.23;;;11.67;;
68074;SDS011;54864;52.002;5.468;2023-09-18T05:56:45;16.42;;;13.35;;
68074;SDS011;54864;52.002;5.468;2023-09-18T05:57:45;18.10;;;12.30;;
68074;SDS011;54864;52.002;5.468;2023-09-18T05:58:47;16.17;;;12.67;;
68074;SDS011;54864;52.002;5.468;2023-09-18T05:59:48;17.08;;;12.90;;
68074;SDS011;54864;52.002;5.468;2023-09-18T06:00:55;20.58;;;13.40;;
68074;SDS011;54864;52.002;5.468;2023-09-18T06:01:56;14.60;;;11.57;;
68074;SDS011;54864;52.002;5.468;2023-09-18T06:02:59;16.15;;;12.50;;
68074;SDS011;54864;52.002;5.468;2023-09-18T06:04:00;16.70;;;13.07;;